Time;durP1;ratioP1;P1;durP2;ratioP2;P2;SDS_P1;SDS_P2;PMS_P1;PMS_P2;Temp;Humidity;BMP_temperature;BMP_pressure;BME280_temperature;BME280_humidity;BME280_pressure;Samples;Min_cycle;Max_cycle;Signal;HPM_P1;HPM_P2
2024/01/27 00:03:57;;;;;;;3.50;1.10;;;;;;;4.32;100.00;99272.36;270864;1269;22581;-91
2024/01/27 00:09:59;;;;;;;2.80;1.40;;;;;;;4.05;100.00;99286.21;273218;1269;22223;-90
2024/01/27 00:16:02;;;;;;;2.50;1.40;;;;;;;3.92;100.00;99318.00;271735;1269;22934;-91
2024/01/27 00:22:06;;;;;;;5.10;1.60;;;;;;;3.87;100.00;99350.81;271675;1269;22569;-92
2024/01/27 00:28:11;;;;;;;3.10;1.70;;;;;;;3.90;100.00;99374.41;270059;1269;25092;-92
2024/01/27 00:34:20;;;;;;;6.50;2.10;;;;;;;3.91;100.00;99388.55;270165;1269;22979;-92
2024/01/27 00:40:22;;;;;;;7.70;1.80;;;;;;;3.91;100.00;99392.71;270927;1269;22255;-93
2024/01/27 00:46:24;;;;;;;6.50;2.10;;;;;;;3.86;100.00;99416.80;272579;1269;22570;-92
2024/01/27 00:52:27;;;;;;;4.00;1.70;;;;;;;3.79;100.00;99424.59;271068;1269;22515;-92
2024/01/27 00:58:31;;;;;;;6.40;2.00;;;;;;;3.71;100.00;99432.91;273453;1269;22363;-90
2024/01/27 01:04:37;;;;;;;4.00;1.60;;;;;;;3.64;100.00;99447.30;271854;1269;24048;-90
2024/01/27 01:10:39;;;;;;;5.10;1.60;;;;;;;3.60;100.00;99446.58;270868;1269;22323;-91
2024/01/27 01:16:45;;;;;;;5.60;1.70;;;;;;;3.59;100.00;99448.11;273347;1259;23480;-92
2024/01/27 01:22:47;;;;;;;4.90;1.80;;;;;;;3.52;100.00;99457.77;270970;1269;25297;-91
2024/01/27 01:28:58;;;;;;;7.40;1.50;;;;;;;3.44;100.00;99458.34;270222;1269;22542;-91
2024/01/27 01:35:02;;;;;;;11.30;2.10;;;;;;;3.46;100.00;99465.41;270171;1269;22245;-92
2024/01/27 01:41:05;;;;;;;8.10;1.90;;;;;;;3.46;100.00;99473.98;270811;1269;22619;-91
2024/01/27 01:47:14;;;;;;;8.70;1.90;;;;;;;3.42;100.00;99477.50;272084;1269;22430;-93
2024/01/27 01:53:18;;;;;;;5.80;1.60;;;;;;;3.44;100.00;99482.94;271230;1269;22227;-91
2024/01/27 01:59:20;;;;;;;7.90;2.90;;;;;;;3.44;100.00;99484.25;271789;1269;22552;-90
2024/01/27 02:05:22;;;;;;;13.40;5.10;;;;;;;3.40;100.00;99485.73;270382;1269;23152;-91
2024/01/27 02:11:26;;;;;;;16.90;2.30;;;;;;;3.39;100.00;99482.62;272083;1269;22390;-91
2024/01/27 02:17:30;;;;;;;14.40;2.20;;;;;;;3.35;100.00;99489.94;273649;1270;22245;-92
2024/01/27 02:23:32;;;;;;;8.10;2.00;;;;;;;3.31;100.00;99504.22;273242;1267;24298;-91
2024/01/27 02:29:34;;;;;;;8.60;1.80;;;;;;;3.27;100.00;99501.23;272720;1269;25259;-90
2024/01/27 02:35:36;;;;;;;9.50;2.20;;;;;;;3.10;100.00;99498.02;271903;1252;23191;-89
2024/01/27 02:41:39;;;;;;;6.60;2.60;;;;;;;2.98;100.00;99500.53;271410;1267;25418;-88
2024/01/27 02:47:41;;;;;;;6.20;2.40;;;;;;;2.91;100.00;99497.80;271249;1267;22585;-91
2024/01/27 02:53:43;;;;;;;8.40;2.20;;;;;;;2.83;100.00;99498.49;270831;1269;25591;-89
2024/01/27 02:59:46;;;;;;;7.70;1.90;;;;;;;2.76;100.00;99503.40;273907;1266;22431;-90
2024/01/27 03:05:48;;;;;;;8.20;1.90;;;;;;;2.85;100.00;99502.77;273499;1269;22387;-91
2024/01/27 03:11:50;;;;;;;9.40;2.30;;;;;;;2.88;100.00;99507.93;273781;1267;22312;-90
2024/01/27 03:17:54;;;;;;;9.70;2.30;;;;;;;2.90;100.00;99526.87;273726;1267;22390;-89
2024/01/27 03:23:56;;;;;;;8.20;2.40;;;;;;;2.94;100.00;99537.36;272451;1269;22336;-90
2024/01/27 03:30:02;;;;;;;13.60;2.00;;;;;;;3.00;100.00;99546.65;273936;1267;23045;-91
2024/01/27 03:36:12;;;;;;;6.90;2.10;;;;;;;3.15;100.00;99558.96;273757;1268;22442;-92
2024/01/27 03:42:15;;;;;;;11.60;2.30;;;;;;;3.20;100.00;99563.20;273890;1267;22213;-92
2024/01/27 03:48:18;;;;;;;13.90;2.20;;;;;;;3.24;100.00;99567.04;273989;1268;22272;-88
2024/01/27 03:54:20;;;;;;;13.70;2.10;;;;;;;3.29;100.00;99559.39;274085;1273;22907;-90
2024/01/27 04:00:22;;;;;;;11.40;2.60;;;;;;;3.24;100.00;99566.91;273883;1267;22466;-90
2024/01/27 04:06:24;;;;;;;11.30;2.50;;;;;;;3.24;100.00;99585.76;273791;1267;22650;-91
2024/01/27 04:12:26;;;;;;;8.80;1.70;;;;;;;3.20;100.00;99609.20;273345;1270;22216;-93
2024/01/27 04:18:28;;;;;;;12.50;2.70;;;;;;;2.99;100.00;99609.06;271269;1270;23744;-91
2024/01/27 04:24:35;;;;;;;7.20;2.00;;;;;;;2.75;100.00;99597.63;270012;1267;24040;-91
2024/01/27 04:30:37;;;;;;;5.30;2.00;;;;;;;2.61;100.00;99603.33;270661;1269;22580;-91
2024/01/27 04:36:39;;;;;;;6.60;1.60;;;;;;;2.54;100.00;99623.61;270296;1267;23363;-87
2024/01/27 04:42:41;;;;;;;10.20;2.40;;;;;;;2.48;100.00;99630.45;273289;1270;22418;-89
2024/01/27 04:48:43;;;;;;;7.40;2.20;;;;;;;2.44;100.00;99628.86;274004;1267;22515;-89
2024/01/27 04:54:45;;;;;;;17.90;2.80;;;;;;;2.44;100.00;99631.21;273953;1267;22413;-89
2024/01/27 05:00:47;;;;;;;10.90;2.70;;;;;;;2.43;100.00;99630.56;273856;1267;23244;-91
2024/01/27 05:06:49;;;;;;;13.40;3.20;;;;;;;2.42;100.00;99626.37;273755;1267;22403;-89
2024/01/27 05:12:51;;;;;;;17.30;3.20;;;;;;;2.40;100.00;99628.20;273936;1267;22429;-90
2024/01/27 05:18:54;;;;;;;14.60;3.30;;;;;;;2.42;100.00;99630.11;273563;1268;22255;-90
2024/01/27 05:24:57;;;;;;;10.60;2.70;;;;;;;2.46;100.00;99633.69;273903;1267;22251;-90
2024/01/27 05:31:02;;;;;;;13.30;2.40;;;;;;;2.52;100.00;99637.98;273788;1264;237494;-90
2024/01/27 05:37:07;;;;;;;9.40;2.30;;;;;;;2.50;100.00;99644.17;273724;1267;22405;-88
2024/01/27 05:43:11;;;;;;;11.60;2.40;;;;;;;2.46;100.00;99648.34;273585;1267;22402;-89
2024/01/27 05:49:13;;;;;;;12.50;2.40;;;;;;;2.42;100.00;99650.43;273631;1267;22400;-91
2024/01/27 05:55:17;;;;;;;11.20;2.50;;;;;;;2.40;100.00;99653.21;273792;1267;23209;-88
2024/01/27 06:01:21;;;;;;;15.60;2.80;;;;;;;2.44;100.00;99659.47;273862;1270;22221;-89
2024/01/27 06:07:23;;;;;;;12.80;3.50;;;;;;;2.47;100.00;99661.34;273840;1267;22312;-90
2024/01/27 06:13:30;;;;;;;13.70;2.20;;;;;;;2.48;100.00;99664.76;273844;1267;23164;-91
2024/01/27 06:19:34;;;;;;;14.50;3.00;;;;;;;2.52;100.00;99676.36;273980;1267;22368;-89
2024/01/27 06:25:49;;;;;;;12.60;3.00;;;;;;;2.54;100.00;99687.44;273441;1265;22601;-89
2024/01/27 06:31:52;;;;;;;13.00;2.80;;;;;;;2.56;100.00;99700.48;273091;1268;23584;-90
2024/01/27 06:37:55;;;;;;;16.70;2.60;;;;;;;2.60;100.00;99705.63;273721;1263;22448;-89
2024/01/27 06:43:57;;;;;;;14.80;2.80;;;;;;;2.64;100.00;99714.12;272488;1267;23376;-90
2024/01/27 06:50:00;;;;;;;16.40;3.40;;;;;;;2.64;100.00;99712.71;273417;1267;22290;-89
2024/01/27 06:56:02;;;;;;;13.30;2.60;;;;;;;2.68;100.00;99725.39;272247;1265;22565;-89
2024/01/27 07:02:04;;;;;;;20.40;3.60;;;;;;;2.72;100.00;99734.45;272773;1266;22539;-88
2024/01/27 07:08:07;;;;;;;16.60;3.20;;;;;;;2.74;100.00;99733.54;273679;1266;23080;-90
2024/01/27 07:14:09;;;;;;;27.70;3.10;;;;;;;2.76;100.00;99734.54;273948;1266;22473;-88
2024/01/27 07:20:29;;;;;;;;;;;;;;;;;;;;;
2024/01/27 07:26:35;;;;;;;16.00;3.70;;;;;;;2.81;100.00;99727.23;273888;1266;23285;-90
2024/01/27 07:32:37;;;;;;;11.20;2.80;;;;;;;2.84;100.00;99725.92;273839;1267;22406;-90
2024/01/27 07:38:43;;;;;;;13.40;2.80;;;;;;;2.85;100.00;99732.23;273427;1265;25207;-89
2024/01/27 07:44:45;;;;;;;18.50;3.10;;;;;;;2.86;100.00;99727.73;272443;1251;23307;-91
2024/01/27 07:50:49;;;;;;;11.70;3.00;;;;;;;2.88;100.00;99732.15;272200;1267;22374;-91
2024/01/27 07:56:53;;;;;;;15.80;3.90;;;;;;;2.88;100.00;99731.23;273696;1266;23021;-91
2024/01/27 08:02:55;;;;;;;12.30;3.00;;;;;;;2.92;100.00;99729.10;271431;1266;22766;-89
2024/01/27 08:08:57;;;;;;;16.80;3.50;;;;;;;2.96;100.00;99735.88;272154;1266;22279;-91
2024/01/27 08:14:59;;;;;;;17.20;3.50;;;;;;;2.97;100.00;99735.73;272389;1267;22533;-89
2024/01/27 08:21:03;;;;;;;15.80;2.80;;;;;;;2.98;100.00;99737.27;269609;1267;22616;-89
2024/01/27 08:27:05;;;;;;;15.30;3.20;;;;;;;2.98;100.00;99742.20;269908;1266;23355;-91
2024/01/27 08:33:07;;;;;;;14.80;3.10;;;;;;;2.99;100.00;99740.13;271622;1266;22563;-91
2024/01/27 08:39:09;;;;;;;16.30;2.90;;;;;;;3.00;100.00;99745.87;270294;1266;22582;-89
2024/01/27 08:45:14;;;;;;;19.00;3.40;;;;;;;3.01;100.00;99753.80;270184;1266;22680;-91
2024/01/27 08:51:18;;;;;;;18.70;3.90;;;;;;;2.99;100.00;99752.45;272052;1263;22574;-90
2024/01/27 08:57:20;;;;;;;13.20;3.30;;;;;;;2.96;100.00;99756.21;273660;1267;22207;-91
2024/01/27 09:03:22;;;;;;;11.60;3.40;;;;;;;2.96;100.00;99757.55;272958;1266;22868;-92
2024/01/27 09:09:28;;;;;;;11.80;3.00;;;;;;;2.99;100.00;99755.27;273793;1266;22501;-89
2024/01/27 09:15:33;;;;;;;14.50;3.00;;;;;;;3.02;100.00;99759.03;271573;1267;22437;-90
2024/01/27 09:21:36;;;;;;;8.70;2.70;;;;;;;3.09;100.00;99771.81;272387;1266;24224;-90
2024/01/27 09:27:38;;;;;;;17.10;3.90;;;;;;;3.09;100.00;99788.69;271791;1266;24208;-90
2024/01/27 09:33:41;;;;;;;15.00;2.80;;;;;;;2.92;100.00;99805.84;271942;1269;22433;-90
2024/01/27 09:39:48;;;;;;;10.90;3.20;;;;;;;2.66;100.00;99818.86;272696;1264;22259;-92
2024/01/27 09:45:50;;;;;;;13.30;3.60;;;;;;;2.52;100.00;99824.31;273968;1266;23186;-88
2024/01/27 09:51:53;;;;;;;18.20;3.60;;;;;;;2.42;100.00;99827.64;271369;1266;22525;-90
2024/01/27 09:57:57;;;;;;;22.60;4.60;;;;;;;2.32;100.00;99822.49;271101;1267;24221;-90
2024/01/27 10:04:00;;;;;;;15.10;3.60;;;;;;;2.27;100.00;99818.54;271181;1266;22552;-90
2024/01/27 10:10:03;;;;;;;15.90;4.10;;;;;;;2.19;100.00;99814.86;271056;1266;22394;-90
2024/01/27 10:23:20;;;;;;;18.10;5.30;;;;;;;2.09;100.00;99807.01;273085;1265;22242;-89
2024/01/27 10:29:44;;;;;;;20.30;4.50;;;;;;;2.01;100.00;99805.70;273305;1266;23212;-89
2024/01/27 10:35:59;;;;;;;11.60;3.80;;;;;;;1.94;100.00;99811.80;272946;1267;23911;-91
2024/01/27 10:42:37;;;;;;;20.30;5.10;;;;;;;1.82;100.00;99808.02;273309;1266;22367;-89
2024/01/27 10:49:25;;;;;;;18.60;6.10;;;;;;;1.73;100.00;99808.52;273773;1266;23712;-91
2024/01/27 10:55:58;;;;;;;21.10;6.70;;;;;;;1.73;100.00;99805.81;273849;1261;22317;-90
2024/01/27 11:02:00;;;;;;;27.60;6.00;;;;;;;1.72;100.00;99805.83;273828;1266;22476;-91
2024/01/27 11:08:04;;;;;;;14.80;6.20;;;;;;;1.73;100.00;99802.08;273909;1267;22545;-91
2024/01/27 11:14:07;;;;;;;16.60;8.10;;;;;;;1.77;100.00;99804.17;271037;1269;24208;-89
2024/01/27 11:20:11;;;;;;;20.80;6.90;;;;;;;1.86;100.00;99812.11;270335;1266;22639;-91
2024/01/27 11:26:19;;;;;;;21.10;6.90;;;;;;;1.89;100.00;99813.71;270494;1266;22557;-91
2024/01/27 11:32:21;;;;;;;20.20;6.30;;;;;;;1.91;100.00;99821.23;273005;1266;22546;-91
2024/01/27 11:38:32;;;;;;;21.60;5.70;;;;;;;1.91;100.00;99822.37;273801;1266;22196;-91
2024/01/27 11:44:36;;;;;;;18.60;6.80;;;;;;;1.94;100.00;99825.34;271583;1251;22530;-89
2024/01/27 11:50:38;;;;;;;19.80;7.00;;;;;;;1.96;100.00;99821.36;271462;1266;22488;-91
2024/01/27 11:56:42;;;;;;;24.60;7.40;;;;;;;1.96;100.00;99821.15;271899;1266;22340;-93
2024/01/27 12:02:50;;;;;;;30.20;7.60;;;;;;;1.96;100.00;99830.80;270791;1263;22529;-91
2024/01/27 12:08:55;;;;;;;24.80;6.40;;;;;;;2.01;100.00;99839.48;272679;1266;22491;-91
2024/01/27 12:15:04;;;;;;;22.60;8.00;;;;;;;2.05;100.00;99843.92;272931;1266;22478;-92
2024/01/27 12:21:18;;;;;;;25.80;7.70;;;;;;;2.09;100.00;99844.13;273578;1266;23014;-89
2024/01/27 12:27:32;;;;;;;26.90;8.50;;;;;;;2.09;100.00;99843.64;273620;1262;22179;-92
2024/01/27 12:33:33;;;;;;;32.00;9.20;;;;;;;2.07;100.00;99849.89;273810;1267;22425;-88
2024/01/27 12:39:35;;;;;;;25.30;9.10;;;;;;;2.09;100.00;99857.41;273800;1265;23224;-89
2024/01/27 12:45:37;;;;;;;20.50;8.10;;;;;;;2.09;100.00;99861.52;273934;1266;23901;-90
2024/01/27 12:51:39;;;;;;;31.30;9.20;;;;;;;2.10;100.00;99869.17;273935;1268;23235;-91
2024/01/27 12:57:42;;;;;;;30.50;8.10;;;;;;;2.09;100.00;99871.82;273773;1269;23319;-92
2024/01/27 13:03:48;;;;;;;35.60;9.60;;;;;;;2.07;100.00;99874.62;273666;1266;22189;-92
2024/01/27 13:09:52;;;;;;;16.00;7.60;;;;;;;2.04;100.00;99888.45;273826;1266;22407;-91
2024/01/27 13:15:54;;;;;;;20.10;8.10;;;;;;;2.01;100.00;99895.80;273694;1269;23699;-91
2024/01/27 13:21:56;;;;;;;26.90;10.30;;;;;;;2.00;100.00;99898.45;273943;1267;22450;-90
2024/01/27 13:27:59;;;;;;;22.60;8.00;;;;;;;2.00;100.00;99905.39;273896;1267;23832;-91
2024/01/27 13:34:05;;;;;;;29.10;10.60;;;;;;;2.00;100.00;99918.55;273674;1267;22393;-92
2024/01/27 13:40:17;;;;;;;36.30;10.80;;;;;;;1.99;100.00;99914.52;273585;1269;22264;-90
2024/01/27 13:46:19;;;;;;;23.70;8.50;;;;;;;2.01;100.00;99919.61;273899;1267;22197;-90
2024/01/27 13:52:21;;;;;;;27.00;8.40;;;;;;;2.03;100.00;99930.43;273935;1269;22277;-91
2024/01/27 13:58:25;;;;;;;22.80;9.50;;;;;;;2.06;100.00;99927.63;273791;1251;22519;-90
2024/01/27 14:04:41;;;;;;;18.80;7.80;;;;;;;2.11;100.00;99929.55;271097;1267;23373;-90
2024/01/27 14:11:18;;;;;;;17.80;8.00;;;;;;;2.15;100.00;99944.17;270678;1266;25268;-90
2024/01/27 14:17:26;;;;;;;21.80;7.30;;;;;;;2.15;100.00;99953.99;272507;1262;22184;-91
2024/01/27 14:23:29;;;;;;;15.50;7.10;;;;;;;2.16;100.00;99967.27;273700;1266;23360;-91
2024/01/27 14:29:47;;;;;;;20.70;6.70;;;;;;;2.16;100.00;99982.50;271364;1267;22526;-88
2024/01/27 14:35:52;;;;;;;22.00;7.80;;;;;;;2.16;100.00;99990.29;272973;1267;22369;-89
2024/01/27 14:42:04;;;;;;;23.40;8.80;;;;;;;2.14;100.00;99997.98;272612;1267;22449;-89
2024/01/27 14:48:10;;;;;;;23.10;8.40;;;;;;;2.13;100.00;100005.46;273775;1269;22362;-90
2024/01/27 14:54:15;;;;;;;22.70;8.30;;;;;;;2.14;100.00;100019.02;274073;1269;22296;-89
2024/01/27 15:00:17;;;;;;;18.80;7.20;;;;;;;2.13;100.00;100025.66;274105;1267;22403;-90
2024/01/27 15:06:30;;;;;;;16.80;8.30;;;;;;;2.10;100.00;100033.29;273711;1267;22643;-91
2024/01/27 15:12:34;;;;;;;27.60;10.10;;;;;;;2.08;100.00;100039.64;271400;1256;22614;-89
2024/01/27 15:18:40;;;;;;;24.10;9.10;;;;;;;2.07;100.00;100053.34;271759;1266;23721;-88
2024/01/27 15:24:42;;;;;;;26.80;11.50;;;;;;;2.07;100.00;100069.38;273782;1266;22890;-90
2024/01/27 15:30:47;;;;;;;18.10;9.50;;;;;;;2.05;100.00;100079.98;271605;1267;22558;-88
2024/01/27 15:36:49;;;;;;;21.80;9.80;;;;;;;2.04;100.00;100097.16;273181;1267;23265;-89
2024/01/27 15:42:51;;;;;;;30.70;12.60;;;;;;;2.04;100.00;100110.84;271757;1266;23782;-89
2024/01/27 15:48:53;;;;;;;24.70;11.50;;;;;;;2.03;100.00;100122.79;271281;1269;22704;-90
2024/01/27 15:55:07;;;;;;;;;;;;;;;;;;;;;
2024/01/27 16:01:09;;;;;;;29.60;15.00;;;;;;;2.04;100.00;100140.22;273733;1272;22489;-89
2024/01/27 16:07:12;;;;;;;34.20;12.60;;;;;;;2.05;100.00;100150.45;273582;1257;22326;-89
2024/01/27 16:13:14;;;;;;;34.00;13.00;;;;;;;2.06;100.00;100164.77;273871;1266;22393;-90
2024/01/27 16:19:16;;;;;;;34.40;13.60;;;;;;;2.06;100.00;100174.22;273648;1269;22548;-89
2024/01/27 16:25:18;;;;;;;31.50;13.40;;;;;;;2.07;100.00;100180.36;272140;1266;23250;-88
2024/01/27 16:31:20;;;;;;;35.90;14.70;;;;;;;2.08;100.00;100185.06;272692;1267;22252;-88
2024/01/27 16:37:25;;;;;;;38.40;14.60;;;;;;;2.09;100.00;100192.17;273765;1267;23434;-91
2024/01/27 16:43:31;;;;;;;36.70;13.80;;;;;;;2.10;100.00;100200.05;273875;1270;22459;-90
2024/01/27 16:49:33;;;;;;;37.00;15.00;;;;;;;2.13;100.00;100207.29;273669;1267;22177;-89
2024/01/27 16:55:37;;;;;;;35.00;14.90;;;;;;;2.15;100.00;100218.08;273756;1269;22436;-89
2024/01/27 17:01:39;;;;;;;31.50;14.80;;;;;;;2.17;100.00;100226.59;273540;1256;23828;-88
2024/01/27 17:07:41;;;;;;;43.50;17.90;;;;;;;2.18;100.00;100234.55;265772;1269;10001932;-88
2024/01/27 17:13:44;;;;;;;35.80;15.20;;;;;;;2.21;100.00;100239.08;273410;1273;23670;-89
2024/01/27 17:19:51;;;;;;;32.30;14.70;;;;;;;2.23;100.00;100251.15;273695;1270;22383;-88
2024/01/27 17:25:53;;;;;;;40.30;16.00;;;;;;;2.24;100.00;100259.50;273906;1267;23509;-88
2024/01/27 17:31:56;;;;;;;43.20;17.30;;;;;;;2.26;100.00;100262.77;273438;1257;376712;-89
2024/01/27 17:37:59;;;;;;;52.40;18.50;;;;;;;2.27;100.00;100267.73;273680;1269;23122;-88
2024/01/27 17:44:01;;;;;;;41.20;18.40;;;;;;;2.28;100.00;100275.73;273386;1267;22412;-89
2024/01/27 17:50:07;;;;;;;51.00;19.70;;;;;;;2.29;100.00;100282.89;273717;1269;22248;-88
2024/01/27 17:56:10;;;;;;;44.30;20.20;;;;;;;2.29;100.00;100292.77;273639;1266;22444;-88
2024/01/27 18:02:12;;;;;;;49.80;18.40;;;;;;;2.30;100.00;100303.79;273693;1273;22247;-90
2024/01/27 18:08:14;;;;;;;40.60;17.10;;;;;;;2.29;100.00;100311.05;273806;1267;22434;-89
2024/01/27 18:14:16;;;;;;;45.20;17.50;;;;;;;2.27;100.00;100320.58;273994;1271;22219;-89
2024/01/27 18:20:18;;;;;;;42.70;17.40;;;;;;;2.26;100.00;100332.21;273878;1269;23940;-89
2024/01/27 18:26:20;;;;;;;56.60;18.00;;;;;;;2.26;100.00;100339.62;273850;1267;22210;-89
2024/01/27 18:32:25;;;;;;;40.40;16.70;;;;;;;2.27;100.00;100342.64;273691;1266;22426;-88
2024/01/27 18:38:29;;;;;;;45.20;16.50;;;;;;;2.27;100.00;100352.64;273896;1267;22380;-89
2024/01/27 18:44:31;;;;;;;42.30;17.50;;;;;;;2.27;100.00;100363.75;273873;1267;22443;-88
2024/01/27 18:50:33;;;;;;;45.50;17.00;;;;;;;2.29;100.00;100378.60;273507;1267;22449;-90
2024/01/27 18:56:36;;;;;;;39.30;17.20;;;;;;;2.30;100.00;100392.11;273753;1267;22479;-90
2024/01/27 19:02:38;;;;;;;51.60;18.20;;;;;;;2.32;100.00;100397.27;273796;1269;22983;-88
2024/01/27 19:08:41;;;;;;;42.80;17.00;;;;;;;2.34;100.00;100401.58;273869;1267;23234;-88
2024/01/27 19:14:45;;;;;;;45.40;16.90;;;;;;;2.36;100.00;100410.48;273849;1267;22525;-90
2024/01/27 19:20:47;;;;;;;50.10;19.20;;;;;;;2.37;100.00;100428.08;273919;1266;22303;-89
2024/01/27 19:26:49;;;;;;;53.40;17.80;;;;;;;2.40;100.00;100439.29;273717;1266;23134;-87
2024/01/27 19:32:51;;;;;;;44.30;17.60;;;;;;;2.43;100.00;100447.10;273788;1267;23057;-88
2024/01/27 19:38:53;;;;;;;37.50;14.60;;;;;;;2.44;100.00;100459.80;273814;1257;22405;-88
2024/01/27 19:44:55;;;;;;;34.00;11.90;;;;;;;2.46;100.00;100470.00;273624;1266;23532;-89
2024/01/27 19:50:59;;;;;;;35.40;13.00;;;;;;;2.48;100.00;100476.73;273657;1267;22408;-88
2024/01/27 19:57:01;;;;;;;39.60;13.10;;;;;;;2.51;100.00;100485.07;272045;1266;22539;-87
2024/01/27 20:03:03;;;;;;;34.50;13.10;;;;;;;2.52;100.00;100491.16;271304;1267;22523;-88
2024/01/27 20:09:05;;;;;;;31.30;10.50;;;;;;;2.53;100.00;100499.98;273193;1267;23690;-89
2024/01/27 20:15:07;;;;;;;36.40;11.80;;;;;;;2.55;100.00;100513.68;273783;1267;22201;-89
2024/01/27 20:21:09;;;;;;;34.30;11.20;;;;;;;2.55;100.00;100517.14;273716;1266;22205;-88
2024/01/27 20:27:11;;;;;;;31.20;10.40;;;;;;;2.56;100.00;100530.39;273635;1267;22213;-89
2024/01/27 20:33:13;;;;;;;30.30;10.00;;;;;;;2.58;100.00;100533.50;273760;1267;22459;-89
2024/01/27 20:39:15;;;;;;;33.90;11.00;;;;;;;2.59;100.00;100539.65;273844;1267;22603;-89
2024/01/27 20:45:20;;;;;;;24.70;9.00;;;;;;;2.60;100.00;100550.19;273954;1266;22215;-90
2024/01/27 20:51:22;;;;;;;31.00;10.30;;;;;;;2.60;100.00;100557.86;273849;1266;22212;-89
2024/01/27 20:57:25;;;;;;;27.50;8.00;;;;;;;2.61;100.00;100569.10;273842;1268;22212;-88
2024/01/27 21:03:27;;;;;;;29.60;9.30;;;;;;;2.61;100.00;100571.32;273567;1266;22195;-88
2024/01/27 21:09:29;;;;;;;30.60;10.60;;;;;;;2.59;100.00;100581.77;273719;1267;22534;-88
2024/01/27 21:15:31;;;;;;;31.30;10.20;;;;;;;2.57;100.00;100593.91;272995;1267;22560;-88
2024/01/27 21:21:33;;;;;;;26.60;10.30;;;;;;;2.55;100.00;100602.83;270951;1267;22612;-88
2024/01/27 21:27:36;;;;;;;35.70;10.00;;;;;;;2.51;100.00;100606.39;271255;1267;22596;-87
2024/01/27 21:33:38;;;;;;;38.40;10.70;;;;;;;2.47;100.00;100608.96;271455;1259;22530;-88
2024/01/27 21:39:40;;;;;;;27.30;9.00;;;;;;;2.41;100.00;100618.14;271914;1266;22382;-90
2024/01/27 21:45:42;;;;;;;38.60;10.70;;;;;;;2.31;100.00;100631.66;273853;1266;22422;-89
2024/01/27 21:51:48;;;;;;;29.60;9.80;;;;;;;2.25;100.00;100634.79;273947;1267;22367;-89
2024/01/27 21:57:50;;;;;;;33.70;10.30;;;;;;;2.19;100.00;100640.67;273706;1267;22319;-89
2024/01/27 22:03:52;;;;;;;26.80;9.30;;;;;;;2.16;100.00;100644.64;273832;1267;22420;-90
2024/01/27 22:09:54;;;;;;;29.60;8.10;;;;;;;2.14;100.00;100648.55;273988;1266;23289;-90
2024/01/27 22:15:56;;;;;;;35.10;7.90;;;;;;;2.12;100.00;100658.73;271011;1267;22551;-91
2024/01/27 22:21:58;;;;;;;31.70;9.30;;;;;;;2.12;100.00;100664.48;271252;1266;22814;-89
2024/01/27 22:28:00;;;;;;;20.30;7.10;;;;;;;2.11;100.00;100674.83;274002;1267;22461;-90
2024/01/27 22:34:02;;;;;;;28.80;7.90;;;;;;;2.06;100.00;100686.41;273948;1260;22417;-91
2024/01/27 22:40:06;;;;;;;23.80;7.20;;;;;;;1.98;100.00;100688.83;273934;1266;22226;-89
2024/01/27 22:46:08;;;;;;;29.30;7.20;;;;;;;1.85;100.00;100693.05;273969;1266;22317;-89
2024/01/27 22:52:10;;;;;;;31.40;6.90;;;;;;;1.74;100.00;100703.35;274021;1266;22299;-89
2024/01/27 22:58:12;;;;;;;21.20;6.90;;;;;;;1.63;100.00;100706.05;273934;1266;22253;-89
2024/01/27 23:04:15;;;;;;;20.60;6.20;;;;;;;1.48;100.00;100705.86;273899;1253;22560;-89
2024/01/27 23:10:17;;;;;;;29.40;8.00;;;;;;;1.36;100.00;100704.00;273939;1266;22305;-89
2024/01/27 23:16:19;;;;;;;28.70;9.20;;;;;;;1.27;100.00;100705.41;273802;1266;22216;-90
2024/01/27 23:22:21;;;;;;;30.80;9.90;;;;;;;1.19;100.00;100709.48;273704;1267;23117;-90
2024/01/27 23:28:23;;;;;;;33.90;10.70;;;;;;;1.12;100.00;100716.82;273337;1267;23011;-90
2024/01/27 23:34:25;;;;;;;45.70;11.30;;;;;;;1.10;100.00;100720.11;272088;1266;22571;-89
2024/01/27 23:40:27;;;;;;;35.30;11.30;;;;;;;1.06;100.00;100719.53;271790;1266;22265;-90
2024/01/27 23:46:29;;;;;;;29.60;8.90;;;;;;;1.01;100.00;100730.86;273564;1266;22199;-90
2024/01/27 23:52:35;;;;;;;31.80;8.80;;;;;;;0.96;100.00;100735.27;273921;1266;22197;-90
2024/01/27 23:58:37;;;;;;;30.90;10.30;;;;;;;0.92;100.00;100743.38;273887;1266;22249;-89
